createdAt,value
2023-02-18T00:00:17.182Z,100729.06
2023-02-18T00:02:46.222Z,100721.84
2023-02-18T00:05:14.432Z,100710.63
2023-02-18T00:07:42.932Z,100718.72
2023-02-18T00:10:14.184Z,100717.59
2023-02-18T00:12:42.793Z,100717.25
2023-02-18T00:15:12.061Z,100721.41
2023-02-18T00:17:39.832Z,100703.50
2023-02-18T00:20:08.625Z,100720.25
2023-02-18T00:22:36.805Z,100722.78
2023-02-18T00:25:04.756Z,100717.28
2023-02-18T00:27:32.807Z,100715.59
2023-02-18T00:30:03.988Z,100709.25
2023-02-18T00:32:33.563Z,100707.97
2023-02-18T00:35:02.056Z,100713.69
2023-02-18T00:37:30.308Z,100706.06
2023-02-18T00:39:58.033Z,100715.63
2023-02-18T00:42:25.715Z,100713.69
2023-02-18T00:44:54.505Z,100715.09
2023-02-18T00:47:22.462Z,100714.94
2023-02-18T00:49:51.458Z,100714.66
2023-02-18T00:52:19.124Z,100701.56
2023-02-18T00:54:46.823Z,100698.84
2023-02-18T00:57:14.479Z,100709.44
2023-02-18T00:59:42.375Z,100699.16
2023-02-18T01:02:10.183Z,100707.44
2023-02-18T01:04:38.085Z,100707.44
2023-02-18T01:07:07.145Z,100711.97
2023-02-18T01:09:34.806Z,100711.56
2023-02-18T01:12:02.500Z,100702.25
2023-02-18T01:14:30.271Z,100708.66
2023-02-18T01:16:58.032Z,100711.16
2023-02-18T01:19:25.773Z,100703.19
2023-02-18T01:21:53.513Z,100711.91
2023-02-18T01:24:23.006Z,100707.59
2023-02-18T01:26:50.828Z,100712.06
2023-02-18T01:29:18.477Z,100715.25
2023-02-18T01:31:46.352Z,100709.53
2023-02-18T01:34:16.231Z,100715.34
2023-02-18T01:36:43.895Z,100709.38
2023-02-18T01:39:11.644Z,100698.00
2023-02-18T01:41:40.634Z,100695.59
2023-02-18T01:44:13.694Z,100696.50
2023-02-18T01:46:41.443Z,100704.22
2023-02-18T01:49:11.722Z,100695.41
2023-02-18T01:51:42.608Z,100694.31
2023-02-18T01:54:15.405Z,100693.75
2023-02-18T01:56:49.480Z,100668.50
2023-02-18T01:59:22.652Z,100693.25
2023-02-18T02:01:50.553Z,100688.50
2023-02-18T02:04:18.886Z,100693.91
2023-02-18T02:06:46.630Z,100693.50
2023-02-18T02:09:17.337Z,100691.22
2023-02-18T02:12:16.933Z,100687.59
2023-02-18T02:15:03.096Z,100674.94
2023-02-18T02:17:39.013Z,100681.78
2023-02-18T02:21:03.934Z,100671.53
2023-02-18T02:24:14.978Z,100679.75
2023-02-18T02:27:06.848Z,100661.91
2023-02-18T02:30:15.522Z,100664.00
2023-02-18T02:33:09.179Z,100663.69
2023-02-18T02:35:41.097Z,100653.44
2023-02-18T02:38:15.472Z,100620.88
2023-02-18T02:40:48.218Z,100647.84
2023-02-18T02:43:22.484Z,100648.44
2023-02-18T02:45:56.904Z,100642.53
2023-02-18T02:48:34.024Z,100636.56
2023-02-18T02:51:10.325Z,100643.59
2023-02-18T02:53:41.079Z,100646.84
2023-02-18T02:56:14.500Z,100638.94
2023-02-18T02:58:42.804Z,100640.56
2023-02-18T03:01:24.676Z,100629.41
2023-02-18T03:04:20.409Z,100634.91
2023-02-18T03:07:02.979Z,100630.44
2023-02-18T03:09:39.790Z,100639.97
2023-02-18T03:12:17.711Z,100630.84
2023-02-18T03:14:55.139Z,100626.22
2023-02-18T03:17:26.538Z,100624.50
2023-02-18T03:19:58.022Z,100632.00
2023-02-18T03:22:31.924Z,100631.66
2023-02-18T03:25:03.925Z,100624.94
2023-02-18T03:27:35.978Z,100624.28
2023-02-18T03:30:08.563Z,100570.69
2023-02-18T03:32:37.006Z,100615.16
2023-02-18T03:35:09.534Z,100613.91
2023-02-18T03:37:43.869Z,100614.81
2023-02-18T03:40:12.827Z,100616.78
2023-02-18T03:42:40.474Z,100625.47
2023-02-18T03:45:08.955Z,100621.09
2023-02-18T03:47:37.458Z,100624.69
2023-02-18T03:50:05.819Z,100621.53
2023-02-18T03:52:36.465Z,100632.22
2023-02-18T03:55:06.439Z,100629.72
2023-02-18T03:57:34.307Z,100624.13
2023-02-18T04:00:02.156Z,100614.34
2023-02-18T04:02:41.105Z,100624.06
2023-02-18T04:05:09.296Z,100606.97
2023-02-18T04:07:37.023Z,100620.56
2023-02-18T04:10:08.348Z,100620.56
2023-02-18T04:12:36.009Z,100632.97
2023-02-18T04:15:03.811Z,100628.22
2023-02-18T04:17:31.532Z,100629.03
2023-02-18T04:19:59.237Z,100618.06
2023-02-18T04:22:26.953Z,100626.75
2023-02-18T04:24:54.607Z,100625.22
2023-02-18T04:27:23.759Z,100620.47
2023-02-18T04:29:51.706Z,100632.28
2023-02-18T04:32:19.369Z,100634.25
2023-02-18T04:34:47.066Z,100627.88
2023-02-18T04:37:14.695Z,100629.16
2023-02-18T04:39:42.557Z,100630.16
2023-02-18T04:42:10.360Z,100626.50
2023-02-18T04:44:39.783Z,100635.03
2023-02-18T04:47:08.334Z,100618.81
2023-02-18T04:49:36.212Z,100622.88
2023-02-18T04:52:04.116Z,100628.41
2023-02-18T04:54:31.810Z,100628.78
2023-02-18T04:56:59.612Z,100620.94
2023-02-18T04:59:27.251Z,100619.69
2023-02-18T05:01:56.368Z,100614.94
2023-02-18T05:04:24.322Z,100587.53
2023-02-18T05:06:52.088Z,100622.78
2023-02-18T05:09:19.779Z,100617.84
2023-02-18T05:11:48.806Z,100619.41
2023-02-18T05:14:16.611Z,100624.22
2023-02-18T05:16:44.279Z,100630.31
2023-02-18T05:19:15.204Z,100621.84
2023-02-18T05:21:43.214Z,100625.97
2023-02-18T05:24:11.066Z,100623.69
2023-02-18T05:26:39.035Z,100616.09
2023-02-18T05:29:07.049Z,100624.50
2023-02-18T05:31:35.007Z,100621.72
2023-02-18T05:34:02.689Z,100620.66
2023-02-18T05:36:31.704Z,100610.59
2023-02-18T05:38:59.358Z,100613.78
2023-02-18T05:41:27.041Z,100620.25
2023-02-18T05:44:12.438Z,100617.06
2023-02-18T05:46:40.201Z,100616.94
2023-02-18T05:49:07.852Z,100614.81
2023-02-18T05:51:36.893Z,100614.72
2023-02-18T05:54:05.201Z,100603.28
2023-02-18T05:56:32.869Z,100614.09
2023-02-18T05:59:00.543Z,100607.72
2023-02-18T06:01:28.214Z,100606.88
2023-02-18T06:03:55.886Z,100596.66
2023-02-18T06:06:23.514Z,100594.88
2023-02-18T06:08:52.483Z,100595.91
2023-02-18T06:11:20.166Z,100612.41
2023-02-18T06:13:51.191Z,100596.00
2023-02-18T06:16:18.918Z,100594.50
2023-02-18T06:18:46.638Z,100597.50
2023-02-18T06:21:14.285Z,100601.31
2023-02-18T06:23:42.132Z,100605.19
2023-02-18T06:26:11.363Z,100608.78
2023-02-18T06:28:39.126Z,100606.28
2023-02-18T06:31:07.017Z,100602.13
2023-02-18T06:33:34.699Z,100585.25
2023-02-18T06:36:07.063Z,100587.25
2023-02-18T06:38:35.767Z,100584.41
2023-02-18T06:41:04.018Z,100586.84
2023-02-18T06:43:33.203Z,100582.44
2023-02-18T06:46:00.865Z,100573.44
2023-02-18T06:48:28.619Z,100569.06
2023-02-18T06:50:58.004Z,100567.16
2023-02-18T06:53:25.782Z,100574.69
2023-02-18T06:55:53.439Z,100566.84
2023-02-18T06:58:21.145Z,100574.22
2023-02-18T07:00:50.178Z,100582.97
2023-02-18T07:03:17.849Z,100580.00
2023-02-18T07:05:45.625Z,100584.00
2023-02-18T07:08:13.614Z,100580.44
2023-02-18T07:10:41.431Z,100577.25
2023-02-18T07:13:09.036Z,100576.13
2023-02-18T07:15:36.737Z,100570.06
2023-02-18T07:18:05.919Z,100562.44
2023-02-18T07:20:33.927Z,100566.91
2023-02-18T07:23:01.674Z,100567.38
2023-02-18T07:25:29.350Z,100555.19
2023-02-18T07:27:57.002Z,100567.84
2023-02-18T07:30:24.791Z,100562.69
2023-02-18T07:32:52.504Z,100555.47
2023-02-18T07:35:22.286Z,100560.97
2023-02-18T07:37:51.187Z,100551.00
2023-02-18T07:40:21.699Z,100546.34
2023-02-18T07:42:49.785Z,100542.91
2023-02-18T07:45:17.591Z,100539.06
2023-02-18T07:47:45.451Z,100543.56
2023-02-18T07:50:13.761Z,100534.94
2023-02-18T07:52:42.799Z,100534.28
2023-02-18T07:55:10.480Z,100551.72
2023-02-18T07:57:57.201Z,100546.22
2023-02-18T08:00:25.216Z,100537.09
2023-02-18T08:02:52.928Z,100555.16
2023-02-18T08:05:20.742Z,100552.81
2023-02-18T08:07:49.777Z,100561.13
2023-02-18T08:10:18.195Z,100558.97
2023-02-18T08:12:45.848Z,100549.50
2023-02-18T08:15:14.129Z,100538.75
2023-02-18T08:17:41.725Z,100542.47
2023-02-18T08:20:10.655Z,100541.88
2023-02-18T08:22:38.356Z,100551.84
2023-02-18T08:25:09.188Z,100538.06
2023-02-18T08:27:39.593Z,100542.09
2023-02-18T08:30:08.716Z,100519.75
2023-02-18T08:32:36.564Z,100548.41
2023-02-18T08:35:04.437Z,100537.56
2023-02-18T08:37:52.949Z,100541.25
2023-02-18T08:40:21.757Z,100542.84
2023-02-18T08:42:49.490Z,100548.31
2023-02-18T08:45:17.189Z,100543.69
2023-02-18T08:48:16.817Z,100550.22
2023-02-18T08:50:32.759Z,100526.97
2023-02-18T08:53:03.228Z,100525.09
2023-02-18T08:55:33.133Z,100527.44
2023-02-18T08:58:01.166Z,100530.72
2023-02-18T09:00:29.149Z,100512.88
2023-02-18T09:02:56.929Z,100528.81
2023-02-18T09:05:24.599Z,100520.28
2023-02-18T09:07:52.245Z,100543.09
2023-02-18T09:10:20.222Z,100531.97
2023-02-18T09:12:49.589Z,100536.72
2023-02-18T09:15:17.478Z,100542.34
2023-02-18T09:17:45.169Z,100531.16
2023-02-18T09:20:13.577Z,100548.97
2023-02-18T09:22:41.320Z,100536.06
2023-02-18T09:25:09.393Z,100545.38
2023-02-18T09:27:37.103Z,100548.28
2023-02-18T09:30:07.547Z,100543.91
2023-02-18T09:32:35.718Z,100540.63
2023-02-18T09:35:03.832Z,100534.38
2023-02-18T09:37:31.734Z,100542.34
2023-02-18T09:39:59.973Z,100542.63
2023-02-18T09:42:33.116Z,100543.44
2023-02-18T09:45:03.468Z,100540.78
2023-02-18T09:47:36.933Z,100544.28
2023-02-18T09:50:09.977Z,100542.56
2023-02-18T09:52:39.316Z,100550.63
2023-02-18T09:55:23.170Z,100555.63
2023-02-18T09:57:54.293Z,100538.06
2023-02-18T10:00:26.208Z,100547.78
2023-02-18T10:03:00.745Z,100552.47
2023-02-18T10:05:30.570Z,100545.94
2023-02-18T10:08:02.951Z,100540.97
2023-02-18T10:10:38.847Z,100550.69
2023-02-18T10:13:13.872Z,100528.25
2023-02-18T10:15:42.833Z,100543.03
2023-02-18T10:18:22.705Z,100530.06
2023-02-18T10:20:52.764Z,100536.50
2023-02-18T10:23:22.202Z,100544.06
2023-02-18T10:25:51.258Z,100538.94
2023-02-18T10:28:23.852Z,100528.31
2023-02-18T10:30:55.893Z,100535.44
2023-02-18T10:33:34.871Z,100487.69
2023-02-18T10:36:13.763Z,100536.59
2023-02-18T10:38:50.731Z,100545.16
2023-02-18T10:41:27.079Z,100540.06
2023-02-18T10:44:04.671Z,100540.72
2023-02-18T10:46:38.492Z,100544.84
2023-02-18T10:49:29.071Z,100533.53
2023-02-18T10:52:00.123Z,100538.66
2023-02-18T10:54:48.341Z,100511.44
2023-02-18T10:57:19.342Z,100537.38
2023-02-18T10:59:57.512Z,100517.19
2023-02-18T11:02:29.763Z,100539.34
2023-02-18T11:05:01.867Z,100533.47
2023-02-18T11:07:34.101Z,100528.06
2023-02-18T11:10:10.493Z,100520.16
2023-02-18T11:12:46.964Z,100534.94
2023-02-18T11:15:20.726Z,100533.97
2023-02-18T11:17:50.216Z,100533.13
2023-02-18T11:20:35.582Z,100529.72
2023-02-18T11:23:21.223Z,100545.59
2023-02-18T11:25:58.873Z,100529.72
2023-02-18T11:28:43.258Z,100472.22
2023-02-18T11:31:17.313Z,100523.09
2023-02-18T11:33:50.371Z,100511.72
2023-02-18T11:36:24.721Z,100516.47
2023-02-18T11:38:55.251Z,100504.53
2023-02-18T11:41:32.210Z,100495.06
2023-02-18T11:44:01.524Z,100501.34
2023-02-18T11:46:29.720Z,100498.22
2023-02-18T11:48:57.748Z,100496.72
2023-02-18T11:51:29.403Z,100497.41
2023-02-18T11:54:00.582Z,100496.66
2023-02-18T11:56:30.715Z,100503.38
2023-02-18T11:58:59.302Z,100482.47
2023-02-18T12:01:37.297Z,100471.91
2023-02-18T12:04:12.223Z,100481.91
2023-02-18T12:06:50.019Z,100467.28
2023-02-18T12:09:29.634Z,100471.66
2023-02-18T12:12:00.411Z,100459.88
2023-02-18T12:14:28.801Z,100468.59
2023-02-18T12:17:27.106Z,100464.66
2023-02-18T12:20:12.928Z,100470.19
2023-02-18T12:22:45.958Z,100454.34
2023-02-18T12:25:26.273Z,100446.41
2023-02-18T12:28:09.657Z,100449.19
2023-02-18T12:30:54.801Z,100444.78
2023-02-18T12:33:31.461Z,100442.03
2023-02-18T12:36:08.948Z,100439.50
2023-02-18T12:39:09.262Z,100442.25
2023-02-18T12:41:49.954Z,100432.00
2023-02-18T12:44:33.143Z,100430.38
2023-02-18T12:47:18.463Z,100398.31
2023-02-18T12:50:15.265Z,100416.16
2023-02-18T12:52:53.249Z,100409.84
2023-02-18T12:55:45.364Z,100419.72
2023-02-18T12:58:29.358Z,100421.72
2023-02-18T13:01:26.273Z,100422.34
2023-02-18T13:04:25.458Z,100408.69
2023-02-18T13:07:04.679Z,100403.31
2023-02-18T13:09:48.422Z,100396.09
2023-02-18T13:12:26.122Z,100400.16
2023-02-18T13:15:01.343Z,100397.81
2023-02-18T13:17:35.053Z,100383.63
2023-02-18T13:20:08.177Z,100384.84
2023-02-18T13:22:36.394Z,100388.47
2023-02-18T13:25:04.110Z,100378.91
2023-02-18T13:27:39.868Z,100388.78
2023-02-18T13:30:20.168Z,100370.19
2023-02-18T13:32:58.254Z,100362.22
2023-02-18T13:35:32.397Z,100370.22
2023-02-18T13:38:13.631Z,100370.22
2023-02-18T13:40:42.073Z,100359.16
2023-02-18T13:43:29.510Z,100363.13
2023-02-18T13:46:08.964Z,100372.56
2023-02-18T13:48:44.339Z,100340.03
2023-02-18T13:51:14.491Z,100364.56
2023-02-18T13:53:44.215Z,100363.78
2023-02-18T13:56:22.063Z,100370.19
2023-02-18T13:58:54.982Z,100391.16
2023-02-18T14:01:26.325Z,100383.19
2023-02-18T14:03:57.408Z,100374.97
2023-02-18T14:06:27.678Z,100374.47
2023-02-18T14:09:25.733Z,100376.50
2023-02-18T14:11:57.740Z,100370.56
2023-02-18T14:14:38.503Z,100378.81
2023-02-18T14:17:31.139Z,100376.06
2023-02-18T14:20:43.873Z,100371.78
2023-02-18T14:23:46.826Z,100367.44
2023-02-18T14:26:26.574Z,100374.91
2023-02-18T14:28:59.816Z,100382.03
2023-02-18T14:31:44.686Z,100381.56
2023-02-18T14:34:55.150Z,100385.03
2023-02-18T14:37:38.148Z,100389.75
2023-02-18T14:40:22.244Z,100390.84
2023-02-18T14:43:01.612Z,100393.25
2023-02-18T14:45:41.279Z,100389.72
2023-02-18T14:48:26.174Z,100384.44
2023-02-18T14:50:56.480Z,100392.34
2023-02-18T14:53:27.108Z,100365.06
2023-02-18T14:55:59.379Z,100380.16
2023-02-18T14:58:32.551Z,100395.53
2023-02-18T15:01:07.407Z,100404.97
2023-02-18T15:03:35.194Z,100401.47
2023-02-18T15:06:02.936Z,100397.09
2023-02-18T15:08:38.347Z,100402.16
2023-02-18T15:11:08.450Z,100405.75
2023-02-18T15:13:38.039Z,100405.66
2023-02-18T15:16:10.339Z,100409.25
2023-02-18T15:18:41.402Z,100415.19
2023-02-18T15:21:11.162Z,100413.91
2023-02-18T15:23:41.760Z,100408.44
2023-02-18T15:26:15.644Z,100405.16
2023-02-18T15:28:52.838Z,100411.53
2023-02-18T15:31:27.199Z,100420.19
2023-02-18T15:33:54.968Z,100424.16
2023-02-18T15:36:22.995Z,100416.09
2023-02-18T15:38:50.720Z,100415.16
2023-02-18T15:41:21.092Z,100419.16
2023-02-18T15:43:56.177Z,100422.31
2023-02-18T15:46:26.380Z,100420.25
2023-02-18T15:48:56.077Z,100416.44
2023-02-18T15:51:27.809Z,100415.19
2023-02-18T15:53:57.831Z,100420.63
2023-02-18T15:56:31.352Z,100428.16
2023-02-18T15:59:19.087Z,100424.06
2023-02-18T16:01:51.507Z,100415.78
2023-02-18T16:04:21.053Z,100424.47
2023-02-18T16:06:51.428Z,100419.00
2023-02-18T16:09:23.730Z,100419.31
2023-02-18T16:11:54.992Z,100417.41
2023-02-18T16:14:27.448Z,100425.25
2023-02-18T16:17:14.930Z,100421.81
2023-02-18T16:20:03.306Z,100414.13
2023-02-18T16:22:36.154Z,100413.03
2023-02-18T16:25:15.336Z,100422.75
2023-02-18T16:27:50.650Z,100413.50
2023-02-18T16:30:20.959Z,100412.69
2023-02-18T16:32:50.287Z,100409.91
2023-02-18T16:35:18.203Z,100416.91
2023-02-18T16:37:47.937Z,100416.13
2023-02-18T16:40:24.717Z,100411.28
2023-02-18T16:42:53.562Z,100426.28
2023-02-18T16:45:22.115Z,100422.28
2023-02-18T16:47:51.113Z,100427.25
2023-02-18T16:50:21.665Z,100429.34
2023-02-18T16:52:49.998Z,100434.03
2023-02-18T16:55:20.111Z,100449.66
2023-02-18T16:57:48.482Z,100443.69
2023-02-18T17:00:18.378Z,100449.34
2023-02-18T17:02:49.526Z,100438.03
2023-02-18T17:05:26.852Z,100440.00
2023-02-18T17:07:55.401Z,100440.66
2023-02-18T17:10:23.073Z,100440.88
2023-02-18T17:12:50.694Z,100439.84
2023-02-18T17:15:28.162Z,100443.91
2023-02-18T17:17:58.111Z,100423.88
2023-02-18T17:20:28.175Z,100445.97
2023-02-18T17:22:56.848Z,100448.53
2023-02-18T17:25:26.671Z,100453.03
2023-02-18T17:27:54.699Z,100463.28
2023-02-18T17:30:22.489Z,100464.06
2023-02-18T17:32:50.620Z,100473.91
2023-02-18T17:35:19.944Z,100466.19
2023-02-18T17:37:49.869Z,100469.03
2023-02-18T17:40:20.942Z,100469.75
2023-02-18T17:42:51.068Z,100467.78
2023-02-18T17:45:23.022Z,100477.72
2023-02-18T17:47:50.692Z,100480.06
2023-02-18T17:50:18.520Z,100495.31
2023-02-18T17:52:46.413Z,100483.38
2023-02-18T17:55:22.495Z,100473.88
2023-02-18T17:57:51.058Z,100485.81
2023-02-18T18:00:21.476Z,100489.00
2023-02-18T18:02:49.493Z,100488.88
2023-02-18T18:05:20.993Z,100470.19
2023-02-18T18:07:49.923Z,100488.78
2023-02-18T18:10:21.844Z,100492.91
2023-02-18T18:12:49.951Z,100496.03
2023-02-18T18:15:24.252Z,100499.84
2023-02-18T18:17:52.379Z,100504.19
2023-02-18T18:20:20.696Z,100501.50
2023-02-18T18:22:48.718Z,100506.03
2023-02-18T18:25:23.928Z,100500.22
2023-02-18T18:27:52.888Z,100504.03
2023-02-18T18:30:23.173Z,100505.50
2023-02-18T18:32:50.956Z,100504.41
2023-02-18T18:35:24.848Z,100499.59
2023-02-18T18:37:52.950Z,100508.78
2023-02-18T18:40:23.835Z,100484.66
2023-02-18T18:42:51.916Z,100513.28
2023-02-18T18:45:23.025Z,100514.50
2023-02-18T18:47:51.020Z,100512.41
2023-02-18T18:50:19.906Z,100511.81
2023-02-18T18:52:49.290Z,100515.56
2023-02-18T18:55:25.508Z,100514.88
2023-02-18T18:57:54.012Z,100511.31
2023-02-18T19:00:23.877Z,100513.25
2023-02-18T19:02:51.600Z,100514.50
2023-02-18T19:05:25.865Z,100514.50
2023-02-18T19:07:54.000Z,100512.06
2023-02-18T19:10:23.919Z,100513.66
2023-02-18T19:12:51.695Z,100500.19
2023-02-18T19:15:22.391Z,100510.16
2023-02-18T19:17:52.036Z,100514.66
2023-02-18T19:20:21.816Z,100506.50
2023-02-18T19:22:49.786Z,100512.41
2023-02-18T19:25:18.066Z,100506.06
2023-02-18T19:27:48.445Z,100497.81
2023-02-18T19:30:18.820Z,100504.84
2023-02-18T19:32:47.075Z,100508.78
2023-02-18T19:35:14.724Z,100507.31
2023-02-18T19:37:42.781Z,100499.84
2023-02-18T19:40:13.820Z,100507.69
2023-02-18T19:42:42.134Z,100504.56
2023-02-18T19:45:11.801Z,100503.28
2023-02-18T19:47:40.105Z,100501.06
2023-02-18T19:50:09.153Z,100493.34
2023-02-18T19:52:37.009Z,100495.00
2023-02-18T19:55:04.977Z,100490.31
2023-02-18T19:57:33.038Z,100491.09
2023-02-18T20:00:00.695Z,100493.84
2023-02-18T20:02:30.546Z,100484.78
2023-02-18T20:05:01.500Z,100483.69
2023-02-18T20:07:31.106Z,100493.13
2023-02-18T20:09:58.830Z,100487.19
2023-02-18T20:12:26.719Z,100491.09
2023-02-18T20:14:54.546Z,100482.34
2023-02-18T20:17:22.184Z,100482.66
2023-02-18T20:19:51.247Z,100484.44
2023-02-18T20:22:18.973Z,100484.09
2023-02-18T20:24:47.878Z,100482.72
2023-02-18T20:27:15.916Z,100483.44
2023-02-18T20:29:44.609Z,100484.22
2023-02-18T20:32:12.342Z,100483.56
2023-02-18T20:34:40.031Z,100481.97
2023-02-18T20:37:09.146Z,100484.72
2023-02-18T20:39:36.861Z,100481.88
2023-02-18T20:42:15.545Z,100485.78
2023-02-18T20:44:44.048Z,100458.31
2023-02-18T20:47:13.428Z,100470.44
2023-02-18T20:49:41.716Z,100470.78
2023-02-18T20:52:11.597Z,100482.22
2023-02-18T20:54:39.726Z,100471.09
2023-02-18T20:57:08.855Z,100464.97
2023-02-18T20:59:36.520Z,100458.91
2023-02-18T21:02:04.697Z,100468.13
2023-02-18T21:04:32.835Z,100469.88
2023-02-18T21:07:00.569Z,100463.63
2023-02-18T21:09:29.994Z,100456.97
2023-02-18T21:11:57.747Z,100456.16
2023-02-18T21:14:25.965Z,100461.41
2023-02-18T21:16:53.707Z,100458.25
2023-02-18T21:19:24.552Z,100441.81
2023-02-18T21:21:52.241Z,100471.84
2023-02-18T21:24:19.930Z,100464.59
2023-02-18T21:26:49.715Z,100465.53
2023-02-18T21:29:17.460Z,100462.59
2023-02-18T21:31:45.252Z,100456.69
2023-02-18T21:34:15.456Z,100456.75
2023-02-18T21:36:44.040Z,100454.03
2023-02-18T21:39:12.663Z,100447.41
2023-02-18T21:41:41.397Z,100447.00
2023-02-18T21:44:10.799Z,100449.22
2023-02-18T21:46:39.950Z,100447.50
2023-02-18T21:49:09.405Z,100453.00
2023-02-18T21:51:57.867Z,100446.38
2023-02-18T21:54:27.494Z,100457.34
2023-02-18T21:56:55.944Z,100459.44
2023-02-18T21:59:27.528Z,100452.75
2023-02-18T22:01:55.399Z,100452.28
2023-02-18T22:04:23.826Z,100444.81
2023-02-18T22:06:51.475Z,100440.53
2023-02-18T22:09:19.438Z,100441.63
2023-02-18T22:11:47.223Z,100427.75
2023-02-18T22:14:15.898Z,100428.22
2023-02-18T22:16:45.249Z,100427.09
2023-02-18T22:19:14.244Z,100398.47
2023-02-18T22:21:43.135Z,100405.06
2023-02-18T22:24:12.787Z,100426.41
2023-02-18T22:26:41.177Z,100429.66
2023-02-18T22:29:08.886Z,100430.91
2023-02-18T22:31:36.637Z,100424.63
2023-02-18T22:34:06.052Z,100416.06
2023-02-18T22:36:34.674Z,100410.31
2023-02-18T22:39:02.887Z,100403.59
2023-02-18T22:41:32.461Z,100401.94
2023-02-18T22:44:02.573Z,100421.25
2023-02-18T22:46:32.177Z,100410.19
2023-02-18T22:49:00.744Z,100393.88
2023-02-18T22:51:31.429Z,100418.22
2023-02-18T22:54:00.908Z,100422.66
2023-02-18T22:56:30.093Z,100416.78
2023-02-18T22:58:59.705Z,100409.09
2023-02-18T23:01:29.541Z,100415.25
2023-02-18T23:03:59.022Z,100414.09
2023-02-18T23:06:26.690Z,100417.47
2023-02-18T23:08:56.605Z,100403.63
2023-02-18T23:11:25.111Z,100400.34
2023-02-18T23:14:08.778Z,100401.75
2023-02-18T23:16:56.669Z,100402.16
2023-02-18T23:19:26.208Z,100402.41
2023-02-18T23:21:54.347Z,100388.31
2023-02-18T23:24:23.684Z,100398.38
2023-02-18T23:26:51.859Z,100402.06
2023-02-18T23:29:19.638Z,100398.72
2023-02-18T23:31:47.457Z,100396.81
2023-02-18T23:34:17.776Z,100402.50
2023-02-18T23:36:47.275Z,100396.22
2023-02-18T23:39:18.030Z,100394.69
2023-02-18T23:41:48.654Z,100398.31
2023-02-18T23:44:18.474Z,100399.44
2023-02-18T23:46:46.646Z,100395.19
2023-02-18T23:49:16.023Z,100392.09
2023-02-18T23:51:44.149Z,100386.00
2023-02-18T23:54:12.733Z,100392.00
2023-02-18T23:56:40.736Z,100386.28
2023-02-18T23:59:11.075Z,100400.88
